createdAt,value
2022-12-12T00:00:14.748Z,-1.68
2022-12-12T00:02:42.488Z,-1.64
2022-12-12T00:05:10.066Z,-1.78
2022-12-12T00:07:36.861Z,-1.97
2022-12-12T00:10:04.529Z,-1.97
2022-12-12T00:12:30.996Z,-1.98
2022-12-12T00:14:57.935Z,-1.95
2022-12-12T00:17:24.422Z,-1.97
2022-12-12T00:19:51.015Z,-1.96
2022-12-12T00:22:17.722Z,-1.90
2022-12-12T00:24:44.318Z,-1.82
2022-12-12T00:27:10.839Z,-2.01
2022-12-12T00:29:37.424Z,-2.11
2022-12-12T00:32:04.036Z,-2.10
2022-12-12T00:34:30.552Z,-2.03
2022-12-12T00:36:57.036Z,-2.23
2022-12-12T00:39:23.772Z,-1.95
2022-12-12T00:41:50.860Z,-1.98
2022-12-12T00:44:19.050Z,-1.76
2022-12-12T00:46:45.618Z,-1.87
2022-12-12T00:49:13.147Z,-1.89
2022-12-12T00:51:39.609Z,-2.03
2022-12-12T00:54:06.100Z,-1.90
2022-12-12T00:56:32.684Z,-2.11
2022-12-12T00:58:59.158Z,-2.14
2022-12-12T01:01:29.008Z,-2.31
2022-12-12T01:03:55.756Z,-2.19
2022-12-12T01:06:22.470Z,-2.18
2022-12-12T01:08:49.343Z,-2.09
2022-12-12T01:11:17.495Z,-2.45
2022-12-12T01:13:44.084Z,-2.54
2022-12-12T01:16:11.582Z,-2.70
2022-12-12T01:18:38.180Z,-2.84
2022-12-12T01:21:09.707Z,-3.04
2022-12-12T01:23:36.484Z,-3.15
2022-12-12T01:26:06.037Z,-3.29
2022-12-12T01:28:33.258Z,-3.52
2022-12-12T01:30:59.833Z,-3.65
2022-12-12T01:33:26.502Z,-3.69
2022-12-12T01:35:53.120Z,-3.67
2022-12-12T01:38:19.621Z,-3.55
2022-12-12T01:40:46.806Z,-3.42
2022-12-12T01:43:21.549Z,-3.51
2022-12-12T01:46:03.004Z,-3.50
2022-12-12T01:48:35.253Z,-3.51
2022-12-12T01:51:06.991Z,-3.28
2022-12-12T01:53:34.663Z,-3.27
2022-12-12T01:56:06.005Z,-3.12
2022-12-12T01:58:33.880Z,-3.11
2022-12-12T02:01:01.574Z,-2.86
2022-12-12T02:03:28.202Z,-2.77
2022-12-12T02:06:02.529Z,-2.61
2022-12-12T02:08:30.238Z,-2.47
2022-12-12T02:10:56.880Z,-2.62
2022-12-12T02:13:27.994Z,-2.79
2022-12-12T02:16:14.837Z,-2.94
2022-12-12T02:18:55.673Z,-2.71
2022-12-12T02:21:33.409Z,-2.83
2022-12-12T02:24:28.665Z,-3.03
2022-12-12T02:27:29.029Z,-2.77
2022-12-12T02:30:03.627Z,-3.06
2022-12-12T02:32:56.985Z,-3.44
2022-12-12T02:35:35.555Z,-3.71
2022-12-12T02:38:26.825Z,-3.63
2022-12-12T02:40:53.302Z,-3.41
2022-12-12T02:43:33.905Z,-3.54
2022-12-12T02:46:07.198Z,-3.95
2022-12-12T02:49:18.790Z,-4.03
2022-12-12T02:51:46.006Z,-3.72
2022-12-12T02:54:17.535Z,-3.77
2022-12-12T02:56:53.223Z,-3.73
2022-12-12T02:59:20.154Z,-3.61
2022-12-12T03:01:55.440Z,-3.55
2022-12-12T03:04:47.764Z,-3.46
2022-12-12T03:07:47.748Z,-3.28
2022-12-12T03:10:41.027Z,-3.52
2022-12-12T03:13:13.410Z,-3.56
2022-12-12T03:15:51.633Z,-3.31
2022-12-12T03:18:33.615Z,-3.34
2022-12-12T03:21:05.789Z,-3.31
2022-12-12T03:23:38.290Z,-3.31
2022-12-12T03:26:21.455Z,-3.40
2022-12-12T03:28:54.976Z,-3.30
2022-12-12T03:31:25.487Z,-3.38
2022-12-12T03:34:04.291Z,-3.42
2022-12-12T03:36:40.675Z,-3.18
2022-12-12T03:39:13.283Z,-3.17
2022-12-12T03:41:43.752Z,-3.09
2022-12-12T03:44:18.735Z,-2.85
2022-12-12T03:46:52.066Z,-2.96
2022-12-12T03:49:28.052Z,-3.17
2022-12-12T03:52:03.151Z,-3.28
2022-12-12T03:54:59.280Z,-3.42
2022-12-12T03:57:34.486Z,-3.57
2022-12-12T04:00:07.743Z,-3.60
2022-12-12T04:03:17.998Z,-3.15
2022-12-12T04:06:11.228Z,-3.19
2022-12-12T04:08:38.887Z,-3.41
2022-12-12T04:11:43.808Z,-3.76
2022-12-12T04:14:45.736Z,-4.16
2022-12-12T04:17:18.952Z,-4.04
2022-12-12T04:20:19.461Z,-4.06
2022-12-12T04:23:17.723Z,-4.33
2022-12-12T04:26:24.848Z,-4.51
2022-12-12T04:28:59.716Z,-4.54
2022-12-12T04:31:30.732Z,-4.66
2022-12-12T04:34:07.756Z,-4.70
2022-12-12T04:36:35.480Z,-4.29
2022-12-12T04:39:04.532Z,-4.43
2022-12-12T04:41:34.450Z,-4.52
2022-12-12T04:44:04.017Z,-4.52
2022-12-12T04:46:33.231Z,-4.37
2022-12-12T04:49:07.788Z,-4.41
2022-12-12T04:51:42.463Z,-4.76
2022-12-12T04:54:14.687Z,-4.88
2022-12-12T04:56:44.803Z,-4.92
2022-12-12T04:59:11.670Z,-4.80
2022-12-12T05:01:53.511Z,-4.83
2022-12-12T05:04:36.107Z,-4.77
2022-12-12T05:07:09.945Z,-4.54
2022-12-12T05:09:37.428Z,-4.33
2022-12-12T05:12:04.499Z,-4.56
2022-12-12T05:14:31.794Z,-4.58
2022-12-12T05:17:03.437Z,-4.60
2022-12-12T05:19:29.956Z,-4.55
2022-12-12T05:21:56.440Z,-4.70
2022-12-12T05:24:22.881Z,-4.74
2022-12-12T05:26:49.417Z,-4.80
2022-12-12T05:29:15.879Z,-4.57
2022-12-12T05:31:42.326Z,-4.47
2022-12-12T05:34:10.171Z,-4.92
2022-12-12T05:36:36.720Z,-4.88
2022-12-12T05:39:03.459Z,-5.02
2022-12-12T05:41:29.946Z,-5.15
2022-12-12T05:43:56.414Z,-5.18
2022-12-12T05:46:22.967Z,-5.22
2022-12-12T05:48:50.785Z,-5.28
2022-12-12T05:51:18.046Z,-5.31
2022-12-12T05:53:45.140Z,-5.33
2022-12-12T05:56:12.413Z,-5.14
2022-12-12T05:58:40.059Z,-5.07
2022-12-12T06:01:07.263Z,-5.06
2022-12-12T06:03:34.491Z,-5.19
2022-12-12T06:06:01.497Z,-5.36
2022-12-12T06:08:28.112Z,-5.56
2022-12-12T06:10:55.925Z,-5.85
2022-12-12T06:13:22.420Z,-5.72
2022-12-12T06:15:48.989Z,-5.39
2022-12-12T06:18:16.392Z,-5.66
2022-12-12T06:20:43.766Z,-5.77
2022-12-12T06:23:10.375Z,-5.54
2022-12-12T06:25:36.819Z,-5.70
2022-12-12T06:28:03.475Z,-5.73
2022-12-12T06:30:29.964Z,-5.71
2022-12-12T06:32:56.489Z,-5.22
2022-12-12T06:35:23.025Z,-4.98
2022-12-12T06:37:49.561Z,-4.84
2022-12-12T06:40:16.372Z,-4.79
2022-12-12T06:42:47.874Z,-4.68
2022-12-12T06:45:15.742Z,-4.82
2022-12-12T06:47:42.456Z,-5.06
2022-12-12T06:50:09.464Z,-4.73
2022-12-12T06:52:36.678Z,-4.43
2022-12-12T06:55:03.541Z,-4.29
2022-12-12T06:57:30.009Z,-4.49
2022-12-12T06:59:56.451Z,-4.62
2022-12-12T07:02:29.265Z,-4.58
2022-12-12T07:04:56.785Z,-4.86
2022-12-12T07:07:23.357Z,-4.66
2022-12-12T07:09:49.921Z,-4.78
2022-12-12T07:12:16.409Z,-4.74
2022-12-12T07:14:42.843Z,-4.91
2022-12-12T07:17:09.311Z,-4.53
2022-12-12T07:19:36.011Z,-4.38
2022-12-12T07:22:09.145Z,-4.52
2022-12-12T07:24:36.508Z,-4.71
2022-12-12T07:27:03.340Z,-4.43
2022-12-12T07:29:29.931Z,-4.53
2022-12-12T07:31:56.456Z,-4.76
2022-12-12T07:34:22.976Z,-4.64
2022-12-12T07:36:49.490Z,-4.53
2022-12-12T07:39:20.592Z,-4.85
2022-12-12T07:41:47.672Z,-4.79
2022-12-12T07:44:15.907Z,-4.54
2022-12-12T07:46:42.474Z,-4.43
2022-12-12T07:49:08.975Z,-4.52
2022-12-12T07:51:35.642Z,-4.06
2022-12-12T07:54:02.134Z,-4.46
2022-12-12T07:56:28.603Z,-4.57
2022-12-12T07:58:55.476Z,-4.32
2022-12-12T08:01:25.386Z,-4.49
2022-12-12T08:03:52.431Z,-4.67
2022-12-12T08:06:19.805Z,-4.10
2022-12-12T08:08:47.861Z,-3.97
2022-12-12T08:11:18.448Z,-4.11
2022-12-12T08:13:45.105Z,-3.89
2022-12-12T08:16:33.673Z,-4.07
2022-12-12T08:19:00.441Z,-4.36
2022-12-12T08:21:27.910Z,-4.13
2022-12-12T08:24:02.132Z,-3.72
2022-12-12T08:26:29.628Z,-3.82
2022-12-12T08:28:57.485Z,-3.85
2022-12-12T08:31:24.735Z,-3.51
2022-12-12T08:33:51.915Z,-3.74
2022-12-12T08:36:21.629Z,-3.94
2022-12-12T08:38:49.016Z,-3.77
2022-12-12T08:41:16.176Z,-4.03
2022-12-12T08:43:43.806Z,-3.85
2022-12-12T08:46:17.111Z,-3.51
2022-12-12T08:48:44.977Z,-3.44
2022-12-12T08:51:12.181Z,-3.78
2022-12-12T08:53:43.971Z,-3.63
2022-12-12T08:56:10.430Z,-3.34
2022-12-12T08:58:36.945Z,-3.43
2022-12-12T09:01:09.061Z,-3.32
2022-12-12T09:03:35.518Z,-3.49
2022-12-12T09:06:01.971Z,-3.01
2022-12-12T09:08:30.724Z,-3.14
2022-12-12T09:10:57.312Z,-3.27
2022-12-12T09:13:23.785Z,-3.26
2022-12-12T09:15:51.383Z,-2.92
2022-12-12T09:18:19.178Z,-2.74
2022-12-12T09:20:53.880Z,-3.03
2022-12-12T09:23:21.900Z,-3.33
2022-12-12T09:25:48.860Z,-3.15
2022-12-12T09:28:17.985Z,-3.11
2022-12-12T09:30:45.628Z,-3.52
2022-12-12T09:33:15.788Z,-3.22
2022-12-12T09:35:42.909Z,-3.06
2022-12-12T09:38:14.271Z,-2.82
2022-12-12T09:41:10.765Z,-2.29
2022-12-12T09:43:43.897Z,-2.34
2022-12-12T09:46:37.720Z,-2.57
2022-12-12T09:49:30.243Z,-2.16
2022-12-12T09:51:57.938Z,-2.20
2022-12-12T09:54:27.007Z,-2.25
2022-12-12T09:57:11.869Z,-2.16
2022-12-12T09:59:49.642Z,-2.55
2022-12-12T10:02:58.336Z,-2.79
2022-12-12T10:05:42.028Z,-2.71
2022-12-12T10:08:11.472Z,-2.85
2022-12-12T10:11:04.050Z,-2.36
2022-12-12T10:13:33.185Z,-1.89
2022-12-12T10:16:14.500Z,-1.63
2022-12-12T10:18:48.764Z,-1.53
2022-12-12T10:21:41.959Z,-1.14
2022-12-12T10:24:32.894Z,-1.26
2022-12-12T10:27:08.440Z,-1.77
2022-12-12T10:29:41.101Z,-1.90
2022-12-12T10:32:41.571Z,-1.70
2022-12-12T10:35:49.764Z,-1.85
2022-12-12T10:38:47.132Z,-1.65
2022-12-12T10:41:31.155Z,-1.97
2022-12-12T10:44:22.310Z,-1.45
2022-12-12T10:47:18.343Z,-1.62
2022-12-12T10:49:44.944Z,-1.25
2022-12-12T10:52:18.263Z,-1.54
2022-12-12T10:54:50.830Z,-1.81
2022-12-12T10:57:26.827Z,-1.38
2022-12-12T10:59:56.044Z,-1.47
2022-12-12T11:02:22.595Z,-1.42
2022-12-12T11:04:49.345Z,-1.76
2022-12-12T11:07:20.847Z,-1.56
2022-12-12T11:09:47.308Z,-1.46
2022-12-12T11:12:16.640Z,-1.48
2022-12-12T11:14:52.503Z,-1.29
2022-12-12T11:17:24.727Z,-1.56
2022-12-12T11:19:53.576Z,-1.71
2022-12-12T11:22:21.070Z,-1.28
2022-12-12T11:24:49.770Z,-1.53
2022-12-12T11:27:28.941Z,-1.96
2022-12-12T11:30:00.458Z,-1.82
2022-12-12T11:32:37.820Z,-1.57
2022-12-12T11:35:21.214Z,-1.53
2022-12-12T11:37:51.419Z,-1.28
2022-12-12T11:40:31.019Z,-0.65
2022-12-12T11:43:22.353Z,-0.84
2022-12-12T11:46:15.291Z,-1.60
2022-12-12T11:49:02.776Z,-1.28
2022-12-12T11:51:37.022Z,-0.87
2022-12-12T11:54:10.710Z,-0.84
2022-12-12T11:56:53.088Z,-0.79
2022-12-12T11:59:56.905Z,-1.16
2022-12-12T12:02:51.311Z,-1.31
2022-12-12T12:05:20.713Z,-1.52
2022-12-12T12:08:02.418Z,-1.60
2022-12-12T12:10:28.878Z,-2.09
2022-12-12T12:12:58.349Z,-2.26
2022-12-12T12:15:38.224Z,-2.59
2022-12-12T12:18:28.412Z,-2.64
2022-12-12T12:21:07.099Z,-2.42
2022-12-12T12:23:55.823Z,-2.57
2022-12-12T12:26:35.110Z,-2.40
2022-12-12T12:29:29.851Z,-1.89
2022-12-12T12:32:27.706Z,-2.07
2022-12-12T12:35:03.438Z,-2.01
2022-12-12T12:37:50.761Z,-1.73
2022-12-12T12:40:41.671Z,-1.69
2022-12-12T12:43:41.880Z,-1.62
2022-12-12T12:46:29.697Z,-1.82
2022-12-12T12:49:04.232Z,-1.79
2022-12-12T12:51:50.095Z,-1.63
2022-12-12T12:54:39.255Z,-1.43
2022-12-12T12:57:12.399Z,-1.46
2022-12-12T12:59:43.848Z,-1.45
2022-12-12T13:02:25.300Z,-1.51
2022-12-12T13:05:07.343Z,-1.59
2022-12-12T13:07:46.227Z,-1.85
2022-12-12T13:10:33.589Z,-1.53
2022-12-12T13:13:15.460Z,-1.38
2022-12-12T13:15:46.677Z,-1.10
2022-12-12T13:18:15.831Z,-0.95
2022-12-12T13:20:46.008Z,-0.95
2022-12-12T13:23:19.406Z,-1.18
2022-12-12T13:26:06.448Z,-1.38
2022-12-12T13:28:40.580Z,-1.52
2022-12-12T13:31:25.427Z,-1.56
2022-12-12T13:34:09.386Z,-1.34
2022-12-12T13:36:40.015Z,-1.31
2022-12-12T13:39:08.992Z,-1.41
2022-12-12T13:42:01.184Z,-1.39
2022-12-12T13:44:47.251Z,-1.18
2022-12-12T13:47:22.683Z,-1.15
2022-12-12T13:50:00.620Z,-1.09
2022-12-12T13:52:38.023Z,-1.15
2022-12-12T13:55:21.478Z,-0.97
2022-12-12T13:57:57.194Z,-0.97
2022-12-12T14:00:28.162Z,-1.00
2022-12-12T14:03:01.719Z,-1.02
2022-12-12T14:05:33.480Z,-1.07
2022-12-12T14:08:22.456Z,-1.20
2022-12-12T14:10:48.929Z,-1.04
2022-12-12T14:13:21.226Z,-1.04
2022-12-12T14:16:13.916Z,-1.26
2022-12-12T14:18:57.548Z,-1.26
2022-12-12T14:21:38.777Z,-1.18
2022-12-12T14:24:33.529Z,-0.94
2022-12-12T14:27:01.584Z,-0.78
2022-12-12T14:29:30.346Z,-0.55
2022-12-12T14:32:33.227Z,-0.44
2022-12-12T14:35:29.020Z,-0.63
2022-12-12T14:38:27.848Z,-0.33
2022-12-12T14:41:00.330Z,-0.35
2022-12-12T14:43:31.090Z,-0.32
2022-12-12T14:45:59.766Z,-0.43
2022-12-12T14:48:28.827Z,-0.69
2022-12-12T14:51:10.258Z,-0.45
2022-12-12T14:53:36.686Z,-0.63
2022-12-12T14:56:29.639Z,-0.79
2022-12-12T14:59:02.937Z,-0.89
2022-12-12T15:01:34.345Z,-1.09
2022-12-12T15:04:07.316Z,-1.05
2022-12-12T15:06:53.385Z,-1.38
2022-12-12T15:09:30.229Z,-1.70
2022-12-12T15:12:42.725Z,-1.66
2022-12-12T15:15:27.335Z,-1.91
2022-12-12T15:17:58.629Z,-1.90
2022-12-12T15:20:28.396Z,-2.02
2022-12-12T15:23:01.552Z,-2.14
2022-12-12T15:25:34.340Z,-2.19
2022-12-12T15:28:01.895Z,-2.26
2022-12-12T15:30:37.597Z,-2.34
2022-12-12T15:33:08.862Z,-2.30
2022-12-12T15:35:35.681Z,-2.34
2022-12-12T15:38:10.324Z,-2.39
2022-12-12T15:40:38.193Z,-2.50
2022-12-12T15:43:11.030Z,-2.48
2022-12-12T15:45:43.703Z,-2.54
2022-12-12T15:48:18.298Z,-2.59
2022-12-12T15:50:44.670Z,-2.63
2022-12-12T15:53:32.484Z,-2.79
2022-12-12T15:56:00.628Z,-2.91
2022-12-12T15:58:40.045Z,-2.99
2022-12-12T16:01:20.672Z,-2.91
2022-12-12T16:03:58.115Z,-2.99
2022-12-12T16:06:33.446Z,-3.17
2022-12-12T16:09:00.656Z,-3.21
2022-12-12T16:11:37.687Z,-3.40
2022-12-12T16:14:22.629Z,-3.37
2022-12-12T16:16:59.573Z,-3.42
2022-12-12T16:19:45.899Z,-3.29
2022-12-12T16:22:18.255Z,-3.27
2022-12-12T16:24:54.615Z,-3.41
2022-12-12T16:27:21.771Z,-3.55
2022-12-12T16:29:48.623Z,-3.51
2022-12-12T16:32:18.151Z,-3.58
2022-12-12T16:34:45.182Z,-3.66
2022-12-12T16:37:17.381Z,-3.56
2022-12-12T16:39:44.362Z,-3.63
2022-12-12T16:42:13.163Z,-3.68
2022-12-12T16:44:39.660Z,-3.68
2022-12-12T16:47:23.914Z,-3.72
2022-12-12T16:49:50.908Z,-3.67
2022-12-12T16:52:19.395Z,-3.59
2022-12-12T16:54:53.190Z,-3.55
2022-12-12T16:57:21.958Z,-3.61
2022-12-12T16:59:48.705Z,-3.63
2022-12-12T17:02:18.211Z,-3.83
2022-12-12T17:04:44.693Z,-4.13
2022-12-12T17:07:11.197Z,-4.24
2022-12-12T17:09:37.681Z,-4.26
2022-12-12T17:12:04.461Z,-4.27
2022-12-12T17:14:31.029Z,-4.36
2022-12-12T17:16:57.615Z,-4.38
2022-12-12T17:19:26.281Z,-4.41
2022-12-12T17:21:53.205Z,-4.35
2022-12-12T17:24:20.537Z,-4.37
2022-12-12T17:26:47.940Z,-4.30
2022-12-12T17:29:14.577Z,-4.33
2022-12-12T17:31:41.336Z,-4.46
2022-12-12T17:34:08.088Z,-4.61
2022-12-12T17:36:34.693Z,-4.65
2022-12-12T17:39:01.253Z,-4.80
2022-12-12T17:41:27.849Z,-4.86
2022-12-12T17:43:56.019Z,-4.78
2022-12-12T17:46:23.292Z,-4.81
2022-12-12T17:48:50.191Z,-4.83
2022-12-12T17:51:19.685Z,-4.88
2022-12-12T17:53:46.387Z,-4.93
2022-12-12T17:56:16.005Z,-4.92
2022-12-12T17:58:44.687Z,-4.96
2022-12-12T18:01:17.848Z,-4.98
2022-12-12T18:03:44.632Z,-4.99
2022-12-12T18:06:11.547Z,-5.02
2022-12-12T18:08:38.659Z,-5.05
2022-12-12T18:11:15.039Z,-4.99
2022-12-12T18:13:42.256Z,-5.09
2022-12-12T18:16:11.642Z,-5.20
2022-12-12T18:18:39.175Z,-5.25
2022-12-12T18:21:10.563Z,-5.26
2022-12-12T18:23:39.394Z,-5.30
2022-12-12T18:26:09.732Z,-5.33
2022-12-12T18:28:36.519Z,-5.35
2022-12-12T18:31:04.626Z,-5.10
2022-12-12T18:33:31.126Z,-5.17
2022-12-12T18:36:06.086Z,-5.43
2022-12-12T18:38:33.454Z,-5.42
2022-12-12T18:41:00.309Z,-5.48
2022-12-12T18:43:28.279Z,-5.50
2022-12-12T18:45:55.692Z,-5.55
2022-12-12T18:48:22.373Z,-5.62
2022-12-12T18:50:48.899Z,-5.60
2022-12-12T18:53:15.846Z,-5.67
2022-12-12T18:55:42.963Z,-5.75
2022-12-12T18:58:10.813Z,-5.83
2022-12-12T19:00:40.142Z,-5.86
2022-12-12T19:03:07.689Z,-5.93
2022-12-12T19:05:39.345Z,-5.99
2022-12-12T19:08:05.898Z,-6.00
2022-12-12T19:10:34.485Z,-5.97
2022-12-12T19:13:01.219Z,-5.79
2022-12-12T19:15:27.836Z,-5.89
2022-12-12T19:17:55.985Z,-5.96
2022-12-12T19:20:23.962Z,-5.94
2022-12-12T19:22:50.537Z,-5.67
2022-12-12T19:25:18.060Z,-5.60
2022-12-12T19:27:45.110Z,-5.54
2022-12-12T19:30:13.283Z,-5.50
2022-12-12T19:32:41.319Z,-5.59
2022-12-12T19:35:08.486Z,-5.63
2022-12-12T19:37:36.022Z,-5.82
2022-12-12T19:40:02.532Z,-5.93
2022-12-12T19:42:28.972Z,-5.91
2022-12-12T19:44:55.418Z,-6.03
2022-12-12T19:47:21.890Z,-5.95
2022-12-12T19:49:49.187Z,-6.02
2022-12-12T19:52:15.648Z,-5.97
2022-12-12T19:54:42.150Z,-6.00
2022-12-12T19:57:08.613Z,-6.04
2022-12-12T19:59:35.076Z,-6.11
2022-12-12T20:02:01.595Z,-6.15
2022-12-12T20:04:30.055Z,-6.15
2022-12-12T20:06:57.278Z,-6.05
2022-12-12T20:09:29.278Z,-6.22
2022-12-12T20:11:58.081Z,-6.36
2022-12-12T20:14:33.609Z,-6.38
2022-12-12T20:17:00.657Z,-6.23
2022-12-12T20:19:27.809Z,-6.05
2022-12-12T20:22:03.631Z,-6.05
2022-12-12T20:24:32.561Z,-6.17
2022-12-12T20:27:00.004Z,-6.14
2022-12-12T20:29:27.219Z,-6.13
2022-12-12T20:31:53.708Z,-6.38
2022-12-12T20:34:22.507Z,-6.36
2022-12-12T20:36:50.186Z,-6.46
2022-12-12T20:39:22.084Z,-6.57
2022-12-12T20:41:50.174Z,-6.55
2022-12-12T20:44:16.649Z,-6.60
2022-12-12T20:46:45.787Z,-6.72
2022-12-12T20:49:17.977Z,-6.74
2022-12-12T20:51:55.179Z,-6.84
2022-12-12T20:54:24.009Z,-6.81
2022-12-12T20:56:50.495Z,-6.59
2022-12-12T20:59:17.050Z,-6.59
2022-12-12T21:01:43.632Z,-6.57
2022-12-12T21:04:10.490Z,-6.55
2022-12-12T21:06:48.049Z,-6.58
2022-12-12T21:09:22.741Z,-6.50
2022-12-12T21:11:52.897Z,-6.63
2022-12-12T21:14:19.520Z,-6.66
2022-12-12T21:16:46.328Z,-6.62
2022-12-12T21:19:14.242Z,-6.60
2022-12-12T21:21:42.560Z,-6.60
2022-12-12T21:24:12.186Z,-6.66
2022-12-12T21:26:38.746Z,-6.50
2022-12-12T21:29:05.867Z,-6.60
2022-12-12T21:31:36.257Z,-6.57
2022-12-12T21:34:05.689Z,-6.55
2022-12-12T21:36:33.491Z,-6.61
2022-12-12T21:39:02.339Z,-6.56
2022-12-12T21:41:29.656Z,-6.50
2022-12-12T21:43:59.347Z,-6.68
2022-12-12T21:46:28.441Z,-6.64
2022-12-12T21:49:14.692Z,-6.57
2022-12-12T21:51:41.740Z,-6.50
2022-12-12T21:54:10.450Z,-6.48
2022-12-12T21:56:38.004Z,-6.49
2022-12-12T21:59:04.742Z,-6.50
2022-12-12T22:01:32.363Z,-6.50
2022-12-12T22:03:59.958Z,-6.68
2022-12-12T22:06:29.689Z,-6.74
2022-12-12T22:08:57.149Z,-6.55
2022-12-12T22:11:40.785Z,-6.74
2022-12-12T22:14:11.312Z,-6.67
2022-12-12T22:16:38.420Z,-6.74
2022-12-12T22:19:07.817Z,-6.76
2022-12-12T22:21:35.193Z,-6.75
2022-12-12T22:24:02.165Z,-6.70
2022-12-12T22:26:33.390Z,-6.69
2022-12-12T22:29:03.363Z,-6.66
2022-12-12T22:31:31.807Z,-6.72
2022-12-12T22:34:01.311Z,-6.56
2022-12-12T22:36:33.908Z,-6.49
2022-12-12T22:39:01.501Z,-6.69
2022-12-12T22:41:29.380Z,-6.66
2022-12-12T22:44:01.753Z,-6.72
2022-12-12T22:46:28.866Z,-6.69
2022-12-12T22:48:57.393Z,-6.72
2022-12-12T22:51:27.463Z,-6.76
2022-12-12T22:54:02.519Z,-6.85
2022-12-12T22:56:30.998Z,-6.84
2022-12-12T22:58:58.162Z,-6.78
2022-12-12T23:01:26.501Z,-6.76
2022-12-12T23:03:53.109Z,-6.63
2022-12-12T23:06:32.657Z,-6.62
2022-12-12T23:09:05.820Z,-6.60
2022-12-12T23:11:33.499Z,-6.61
2022-12-12T23:14:02.939Z,-6.49
2022-12-12T23:16:30.936Z,-6.29
2022-12-12T23:18:58.629Z,-6.25
2022-12-12T23:21:26.193Z,-6.62
2022-12-12T23:23:54.179Z,-6.63
2022-12-12T23:26:23.784Z,-6.42
2022-12-12T23:28:50.253Z,-6.63
2022-12-12T23:31:20.031Z,-6.71
2022-12-12T23:33:46.755Z,-6.67
2022-12-12T23:36:15.178Z,-6.62
2022-12-12T23:38:42.223Z,-6.66
2022-12-12T23:41:11.303Z,-6.66
2022-12-12T23:43:38.266Z,-6.52
2022-12-12T23:46:07.554Z,-6.72
2022-12-12T23:48:35.029Z,-6.73
2022-12-12T23:51:01.645Z,-6.72
2022-12-12T23:53:32.483Z,-6.65
2022-12-12T23:56:03.950Z,-6.56
2022-12-12T23:58:30.459Z,-6.54
